sensor_id;sensor_type;location;lat;lon;timestamp;P1;durP1;ratioP1;P2;durP2;ratioP2
43744;SDS011;29359;53.048;8.732;2022-09-27T00:01:04;5.55;;;5.15;;
43744;SDS011;29359;53.048;8.732;2022-09-27T00:03:11;5.40;;;5.10;;
43744;SDS011;29359;53.048;8.732;2022-09-27T00:05:14;6.85;;;5.72;;
43744;SDS011;29359;53.048;8.732;2022-09-27T00:07:16;6.13;;;5.70;;
43744;SDS011;29359;53.048;8.732;2022-09-27T00:09:17;6.72;;;6.10;;
43744;SDS011;29359;53.048;8.732;2022-09-27T00:11:24;6.13;;;5.72;;
43744;SDS011;29359;53.048;8.732;2022-09-27T00:13:36;6.95;;;6.40;;
43744;SDS011;29359;53.048;8.732;2022-09-27T00:15:38;6.65;;;6.05;;
43744;SDS011;29359;53.048;8.732;2022-09-27T00:17:40;8.82;;;6.30;;
43744;SDS011;29359;53.048;8.732;2022-09-27T00:19:42;6.80;;;6.30;;
43744;SDS011;29359;53.048;8.732;2022-09-27T00:21:44;7.53;;;7.03;;
43744;SDS011;29359;53.048;8.732;2022-09-27T00:23:47;7.85;;;7.25;;
43744;SDS011;29359;53.048;8.732;2022-09-27T00:25:55;8.05;;;7.45;;
43744;SDS011;29359;53.048;8.732;2022-09-27T00:27:58;8.98;;;8.10;;
43744;SDS011;29359;53.048;8.732;2022-09-27T00:29:59;8.95;;;8.23;;
43744;SDS011;29359;53.048;8.732;2022-09-27T00:32:01;8.52;;;7.93;;
43744;SDS011;29359;53.048;8.732;2022-09-27T00:34:03;9.80;;;9.00;;
43744;SDS011;29359;53.048;8.732;2022-09-27T00:36:06;14.60;;;9.57;;
43744;SDS011;29359;53.048;8.732;2022-09-27T00:38:08;10.65;;;9.75;;
43744;SDS011;29359;53.048;8.732;2022-09-27T00:40:10;10.38;;;9.48;;
43744;SDS011;29359;53.048;8.732;2022-09-27T00:42:18;11.57;;;10.43;;
43744;SDS011;29359;53.048;8.732;2022-09-27T00:51:58;18.70;;;11.60;;
43744;SDS011;29359;53.048;8.732;2022-09-27T00:54:04;14.30;;;12.20;;
43744;SDS011;29359;53.048;8.732;2022-09-27T00:56:09;13.85;;;12.45;;
43744;SDS011;29359;53.048;8.732;2022-09-27T00:58:14;15.68;;;13.68;;
43744;SDS011;29359;53.048;8.732;2022-09-27T01:00:21;17.50;;;12.20;;
43744;SDS011;29359;53.048;8.732;2022-09-27T01:02:23;13.73;;;11.73;;
43744;SDS011;29359;53.048;8.732;2022-09-27T01:04:26;13.15;;;11.95;;
43744;SDS011;29359;53.048;8.732;2022-09-27T01:06:29;16.17;;;12.43;;
43744;SDS011;29359;53.048;8.732;2022-09-27T01:08:31;13.05;;;11.75;;
43744;SDS011;29359;53.048;8.732;2022-09-27T01:10:35;14.98;;;12.23;;
43744;SDS011;29359;53.048;8.732;2022-09-27T01:22:10;10.85;;;8.80;;
43744;SDS011;29359;53.048;8.732;2022-09-27T01:27:06;9.75;;;8.48;;
43744;SDS011;29359;53.048;8.732;2022-09-27T01:32:04;15.20;;;8.77;;
43744;SDS011;29359;53.048;8.732;2022-09-27T01:34:21;11.55;;;8.05;;
43744;SDS011;29359;53.048;8.732;2022-09-27T01:36:42;15.52;;;8.05;;
43744;SDS011;29359;53.048;8.732;2022-09-27T01:44:03;7.93;;;6.65;;
43744;SDS011;29359;53.048;8.732;2022-09-27T01:46:18;13.65;;;6.75;;
43744;SDS011;29359;53.048;8.732;2022-09-27T01:48:24;8.32;;;6.80;;
43744;SDS011;29359;53.048;8.732;2022-09-27T01:50:34;13.48;;;5.97;;
43744;SDS011;29359;53.048;8.732;2022-09-27T01:52:42;10.57;;;6.43;;
43744;SDS011;29359;53.048;8.732;2022-09-27T01:54:53;10.13;;;5.93;;
43744;SDS011;29359;53.048;8.732;2022-09-27T01:56:59;7.53;;;5.65;;
43744;SDS011;29359;53.048;8.732;2022-09-27T01:59:08;6.93;;;5.75;;
43744;SDS011;29359;53.048;8.732;2022-09-27T02:01:29;11.10;;;5.72;;
43744;SDS011;29359;53.048;8.732;2022-09-27T02:03:35;6.10;;;4.90;;
43744;SDS011;29359;53.048;8.732;2022-09-27T02:05:44;7.32;;;4.70;;
43744;SDS011;29359;53.048;8.732;2022-09-27T02:08:00;5.00;;;4.43;;
43744;SDS011;29359;53.048;8.732;2022-09-27T02:10:09;7.80;;;4.28;;
43744;SDS011;29359;53.048;8.732;2022-09-27T02:12:19;7.88;;;4.35;;
43744;SDS011;29359;53.048;8.732;2022-09-27T02:14:36;10.73;;;4.55;;
43744;SDS011;29359;53.048;8.732;2022-09-27T02:16:49;5.60;;;3.70;;
43744;SDS011;29359;53.048;8.732;2022-09-27T02:19:15;10.38;;;4.18;;
43744;SDS011;29359;53.048;8.732;2022-09-27T02:21:32;4.75;;;3.20;;
43744;SDS011;29359;53.048;8.732;2022-09-27T02:23:46;6.72;;;3.58;;
43744;SDS011;29359;53.048;8.732;2022-09-27T02:26:00;5.40;;;3.13;;
43744;SDS011;29359;53.048;8.732;2022-09-27T02:28:25;8.75;;;3.53;;
43744;SDS011;29359;53.048;8.732;2022-09-27T02:30:33;4.82;;;2.80;;
43744;SDS011;29359;53.048;8.732;2022-09-27T02:32:35;5.75;;;2.78;;
43744;SDS011;29359;53.048;8.732;2022-09-27T02:34:36;5.97;;;2.60;;
43744;SDS011;29359;53.048;8.732;2022-09-27T02:36:41;8.68;;;2.75;;
43744;SDS011;29359;53.048;8.732;2022-09-27T02:38:43;3.40;;;2.10;;
43744;SDS011;29359;53.048;8.732;2022-09-27T02:40:45;4.93;;;2.13;;
43744;SDS011;29359;53.048;8.732;2022-09-27T02:42:48;5.05;;;1.90;;
43744;SDS011;29359;53.048;8.732;2022-09-27T02:44:49;8.23;;;2.00;;
43744;SDS011;29359;53.048;8.732;2022-09-27T02:47:07;8.73;;;2.00;;
43744;SDS011;29359;53.048;8.732;2022-09-27T03:03:12;1.92;;;1.00;;
43744;SDS011;29359;53.048;8.732;2022-09-27T03:05:31;3.03;;;0.90;;
43744;SDS011;29359;53.048;8.732;2022-09-27T03:07:37;2.67;;;1.40;;
43744;SDS011;29359;53.048;8.732;2022-09-27T03:09:45;2.40;;;1.25;;
43744;SDS011;29359;53.048;8.732;2022-09-27T03:11:48;2.95;;;1.20;;
43744;SDS011;29359;53.048;8.732;2022-09-27T03:13:50;5.63;;;1.55;;
43744;SDS011;29359;53.048;8.732;2022-09-27T03:16:08;3.20;;;1.05;;
43744;SDS011;29359;53.048;8.732;2022-09-27T03:18:10;4.38;;;1.27;;
43744;SDS011;29359;53.048;8.732;2022-09-27T03:20:12;2.65;;;0.82;;
43744;SDS011;29359;53.048;8.732;2022-09-27T03:22:13;4.85;;;1.35;;
43744;SDS011;29359;53.048;8.732;2022-09-27T03:24:15;2.80;;;0.85;;
43744;SDS011;29359;53.048;8.732;2022-09-27T03:26:16;2.35;;;1.08;;
43744;SDS011;29359;53.048;8.732;2022-09-27T03:28:19;8.05;;;1.10;;
43744;SDS011;29359;53.048;8.732;2022-09-27T03:30:20;3.47;;;1.20;;
43744;SDS011;29359;53.048;8.732;2022-09-27T03:32:22;2.13;;;0.98;;
43744;SDS011;29359;53.048;8.732;2022-09-27T03:34:24;4.45;;;1.27;;
43744;SDS011;29359;53.048;8.732;2022-09-27T03:36:25;3.53;;;1.17;;
43744;SDS011;29359;53.048;8.732;2022-09-27T03:38:27;8.98;;;1.00;;
43744;SDS011;29359;53.048;8.732;2022-09-27T03:40:29;2.00;;;0.98;;
43744;SDS011;29359;53.048;8.732;2022-09-27T03:42:30;2.25;;;0.80;;
43744;SDS011;29359;53.048;8.732;2022-09-27T03:44:32;3.63;;;1.20;;
43744;SDS011;29359;53.048;8.732;2022-09-27T03:46:33;3.72;;;1.40;;
43744;SDS011;29359;53.048;8.732;2022-09-27T03:48:35;3.58;;;1.33;;
43744;SDS011;29359;53.048;8.732;2022-09-27T03:50:36;3.35;;;1.50;;
43744;SDS011;29359;53.048;8.732;2022-09-27T03:52:38;3.30;;;1.23;;
43744;SDS011;29359;53.048;8.732;2022-09-27T03:54:40;3.70;;;1.55;;
43744;SDS011;29359;53.048;8.732;2022-09-27T03:56:42;3.15;;;1.52;;
43744;SDS011;29359;53.048;8.732;2022-09-27T03:58:45;6.88;;;2.20;;
43744;SDS011;29359;53.048;8.732;2022-09-27T04:00:46;2.60;;;1.95;;
43744;SDS011;29359;53.048;8.732;2022-09-27T04:02:48;4.97;;;2.10;;
43744;SDS011;29359;53.048;8.732;2022-09-27T04:04:49;4.25;;;2.40;;
43744;SDS011;29359;53.048;8.732;2022-09-27T04:06:51;5.88;;;2.47;;
43744;SDS011;29359;53.048;8.732;2022-09-27T04:08:52;5.28;;;2.22;;
43744;SDS011;29359;53.048;8.732;2022-09-27T04:10:54;5.50;;;2.53;;
43744;SDS011;29359;53.048;8.732;2022-09-27T04:12:56;6.32;;;2.63;;
43744;SDS011;29359;53.048;8.732;2022-09-27T04:14:58;8.57;;;3.13;;
43744;SDS011;29359;53.048;8.732;2022-09-27T04:17:00;6.05;;;2.53;;
43744;SDS011;29359;53.048;8.732;2022-09-27T04:19:02;8.43;;;2.97;;
43744;SDS011;29359;53.048;8.732;2022-09-27T04:21:03;5.00;;;2.53;;
43744;SDS011;29359;53.048;8.732;2022-09-27T04:23:05;6.15;;;2.85;;
43744;SDS011;29359;53.048;8.732;2022-09-27T04:25:07;8.07;;;3.00;;
43744;SDS011;29359;53.048;8.732;2022-09-27T04:27:09;8.45;;;2.97;;
43744;SDS011;29359;53.048;8.732;2022-09-27T04:29:11;6.90;;;2.25;;
43744;SDS011;29359;53.048;8.732;2022-09-27T04:31:12;9.10;;;3.25;;
43744;SDS011;29359;53.048;8.732;2022-09-27T04:33:14;3.60;;;2.38;;
43744;SDS011;29359;53.048;8.732;2022-09-27T04:35:16;7.13;;;2.88;;
43744;SDS011;29359;53.048;8.732;2022-09-27T04:37:37;5.25;;;2.83;;
43744;SDS011;29359;53.048;8.732;2022-09-27T04:39:38;4.18;;;2.53;;
43744;SDS011;29359;53.048;8.732;2022-09-27T04:41:40;6.53;;;3.05;;
43744;SDS011;29359;53.048;8.732;2022-09-27T04:43:41;5.60;;;2.38;;
43744;SDS011;29359;53.048;8.732;2022-09-27T04:45:43;4.90;;;2.42;;
43744;SDS011;29359;53.048;8.732;2022-09-27T04:47:45;4.22;;;2.20;;
43744;SDS011;29359;53.048;8.732;2022-09-27T04:49:48;8.15;;;2.25;;
43744;SDS011;29359;53.048;8.732;2022-09-27T04:51:50;4.78;;;2.10;;
43744;SDS011;29359;53.048;8.732;2022-09-27T04:53:51;4.82;;;2.17;;
43744;SDS011;29359;53.048;8.732;2022-09-27T04:55:53;6.30;;;2.40;;
43744;SDS011;29359;53.048;8.732;2022-09-27T04:57:56;4.03;;;1.80;;
43744;SDS011;29359;53.048;8.732;2022-09-27T04:59:57;3.97;;;1.83;;
43744;SDS011;29359;53.048;8.732;2022-09-27T05:02:01;2.67;;;1.88;;
43744;SDS011;29359;53.048;8.732;2022-09-27T05:04:03;5.50;;;1.90;;
43744;SDS011;29359;53.048;8.732;2022-09-27T05:06:05;3.67;;;1.83;;
43744;SDS011;29359;53.048;8.732;2022-09-27T05:08:06;6.00;;;1.80;;
43744;SDS011;29359;53.048;8.732;2022-09-27T05:10:08;2.33;;;1.63;;
43744;SDS011;29359;53.048;8.732;2022-09-27T05:12:10;6.57;;;2.72;;
43744;SDS011;29359;53.048;8.732;2022-09-27T05:14:13;5.65;;;2.17;;
43744;SDS011;29359;53.048;8.732;2022-09-27T05:16:15;7.53;;;2.00;;
43744;SDS011;29359;53.048;8.732;2022-09-27T05:18:17;2.25;;;1.73;;
43744;SDS011;29359;53.048;8.732;2022-09-27T05:20:19;8.93;;;2.28;;
43744;SDS011;29359;53.048;8.732;2022-09-27T05:22:21;2.42;;;1.80;;
43744;SDS011;29359;53.048;8.732;2022-09-27T05:24:22;8.73;;;2.28;;
43744;SDS011;29359;53.048;8.732;2022-09-27T05:26:24;3.58;;;2.35;;
43744;SDS011;29359;53.048;8.732;2022-09-27T05:28:25;6.35;;;2.13;;
43744;SDS011;29359;53.048;8.732;2022-09-27T05:30:27;3.50;;;2.83;;
43744;SDS011;29359;53.048;8.732;2022-09-27T05:32:28;7.20;;;2.50;;
43744;SDS011;29359;53.048;8.732;2022-09-27T05:34:30;2.63;;;2.40;;
43744;SDS011;29359;53.048;8.732;2022-09-27T05:36:32;3.15;;;2.30;;
43744;SDS011;29359;53.048;8.732;2022-09-27T05:38:34;4.85;;;2.20;;
43744;SDS011;29359;53.048;8.732;2022-09-27T05:40:37;7.40;;;2.70;;
43744;SDS011;29359;53.048;8.732;2022-09-27T05:42:42;4.43;;;2.55;;
43744;SDS011;29359;53.048;8.732;2022-09-27T05:44:44;6.35;;;2.30;;
43744;SDS011;29359;53.048;8.732;2022-09-27T05:46:47;2.90;;;2.33;;
43744;SDS011;29359;53.048;8.732;2022-09-27T05:48:49;2.55;;;2.35;;
43744;SDS011;29359;53.048;8.732;2022-09-27T05:50:50;3.83;;;2.33;;
43744;SDS011;29359;53.048;8.732;2022-09-27T05:52:52;4.07;;;3.08;;
43744;SDS011;29359;53.048;8.732;2022-09-27T05:54:54;6.80;;;3.28;;
43744;SDS011;29359;53.048;8.732;2022-09-27T05:56:56;4.15;;;2.58;;
43744;SDS011;29359;53.048;8.732;2022-09-27T05:59:00;3.72;;;2.38;;
43744;SDS011;29359;53.048;8.732;2022-09-27T06:01:05;4.13;;;2.45;;
43744;SDS011;29359;53.048;8.732;2022-09-27T06:03:09;6.20;;;2.92;;
43744;SDS011;29359;53.048;8.732;2022-09-27T06:05:12;5.97;;;2.00;;
43744;SDS011;29359;53.048;8.732;2022-09-27T06:07:14;3.42;;;2.20;;
43744;SDS011;29359;53.048;8.732;2022-09-27T06:09:16;3.30;;;2.35;;
43744;SDS011;29359;53.048;8.732;2022-09-27T06:11:17;2.67;;;2.00;;
43744;SDS011;29359;53.048;8.732;2022-09-27T06:13:19;5.57;;;2.17;;
43744;SDS011;29359;53.048;8.732;2022-09-27T06:15:20;5.65;;;2.25;;
43744;SDS011;29359;53.048;8.732;2022-09-27T06:17:22;3.85;;;2.50;;
43744;SDS011;29359;53.048;8.732;2022-09-27T06:19:23;7.20;;;2.03;;
43744;SDS011;29359;53.048;8.732;2022-09-27T06:21:25;4.80;;;2.33;;
43744;SDS011;29359;53.048;8.732;2022-09-27T06:23:28;6.68;;;2.17;;
43744;SDS011;29359;53.048;8.732;2022-09-27T06:25:34;3.50;;;2.08;;
43744;SDS011;29359;53.048;8.732;2022-09-27T06:27:36;5.10;;;2.30;;
43744;SDS011;29359;53.048;8.732;2022-09-27T06:29:38;3.53;;;2.00;;
43744;SDS011;29359;53.048;8.732;2022-09-27T06:31:39;4.03;;;1.88;;
43744;SDS011;29359;53.048;8.732;2022-09-27T06:33:41;3.67;;;1.98;;
43744;SDS011;29359;53.048;8.732;2022-09-27T06:35:42;6.45;;;1.60;;
43744;SDS011;29359;53.048;8.732;2022-09-27T06:37:45;3.65;;;2.00;;
43744;SDS011;29359;53.048;8.732;2022-09-27T06:39:47;5.65;;;1.60;;
43744;SDS011;29359;53.048;8.732;2022-09-27T06:41:51;2.60;;;1.52;;
43744;SDS011;29359;53.048;8.732;2022-09-27T06:43:56;1.92;;;1.40;;
43744;SDS011;29359;53.048;8.732;2022-09-27T06:45:58;3.95;;;1.65;;
43744;SDS011;29359;53.048;8.732;2022-09-27T06:48:05;4.07;;;1.83;;
43744;SDS011;29359;53.048;8.732;2022-09-27T06:50:08;3.88;;;1.42;;
43744;SDS011;29359;53.048;8.732;2022-09-27T06:52:10;5.43;;;1.52;;
43744;SDS011;29359;53.048;8.732;2022-09-27T06:54:12;4.65;;;1.40;;
43744;SDS011;29359;53.048;8.732;2022-09-27T06:56:13;2.22;;;1.35;;
43744;SDS011;29359;53.048;8.732;2022-09-27T06:58:15;3.38;;;1.10;;
43744;SDS011;29359;53.048;8.732;2022-09-27T07:00:35;3.53;;;1.00;;
43744;SDS011;29359;53.048;8.732;2022-09-27T07:02:37;1.60;;;1.20;;
43744;SDS011;29359;53.048;8.732;2022-09-27T07:04:40;3.40;;;1.10;;
43744;SDS011;29359;53.048;8.732;2022-09-27T07:06:41;3.63;;;1.02;;
43744;SDS011;29359;53.048;8.732;2022-09-27T07:08:43;1.83;;;0.82;;
43744;SDS011;29359;53.048;8.732;2022-09-27T07:10:44;3.28;;;1.10;;
43744;SDS011;29359;53.048;8.732;2022-09-27T07:12:46;1.20;;;0.70;;
43744;SDS011;29359;53.048;8.732;2022-09-27T07:14:48;2.85;;;0.90;;
43744;SDS011;29359;53.048;8.732;2022-09-27T07:16:50;1.90;;;0.93;;
43744;SDS011;29359;53.048;8.732;2022-09-27T07:18:52;2.45;;;0.82;;
43744;SDS011;29359;53.048;8.732;2022-09-27T07:20:54;4.57;;;0.95;;
43744;SDS011;29359;53.048;8.732;2022-09-27T07:23:00;1.08;;;0.80;;
43744;SDS011;29359;53.048;8.732;2022-09-27T07:25:01;3.67;;;0.90;;
43744;SDS011;29359;53.048;8.732;2022-09-27T07:27:03;1.98;;;0.75;;
43744;SDS011;29359;53.048;8.732;2022-09-27T07:29:05;5.88;;;1.00;;
43744;SDS011;29359;53.048;8.732;2022-09-27T07:31:07;1.58;;;1.13;;
43744;SDS011;29359;53.048;8.732;2022-09-27T07:33:09;3.15;;;0.73;;
43744;SDS011;29359;53.048;8.732;2022-09-27T07:35:12;3.50;;;1.00;;
43744;SDS011;29359;53.048;8.732;2022-09-27T07:37:16;2.03;;;0.95;;
43744;SDS011;29359;53.048;8.732;2022-09-27T07:39:18;5.15;;;0.82;;
43744;SDS011;29359;53.048;8.732;2022-09-27T07:41:22;4.72;;;1.23;;
43744;SDS011;29359;53.048;8.732;2022-09-27T07:43:23;1.70;;;0.75;;
43744;SDS011;29359;53.048;8.732;2022-09-27T07:45:25;4.00;;;0.80;;
43744;SDS011;29359;53.048;8.732;2022-09-27T07:47:27;2.28;;;0.70;;
43744;SDS011;29359;53.048;8.732;2022-09-27T07:49:28;4.10;;;0.88;;
43744;SDS011;29359;53.048;8.732;2022-09-27T07:51:30;3.55;;;0.90;;
43744;SDS011;29359;53.048;8.732;2022-09-27T07:53:31;2.50;;;0.90;;
43744;SDS011;29359;53.048;8.732;2022-09-27T07:55:33;3.50;;;0.93;;
43744;SDS011;29359;53.048;8.732;2022-09-27T07:57:35;6.57;;;0.93;;
43744;SDS011;29359;53.048;8.732;2022-09-27T07:59:37;4.60;;;1.05;;
43744;SDS011;29359;53.048;8.732;2022-09-27T08:01:39;2.67;;;0.70;;
43744;SDS011;29359;53.048;8.732;2022-09-27T08:03:41;3.72;;;0.70;;
43744;SDS011;29359;53.048;8.732;2022-09-27T08:05:43;5.07;;;0.90;;
43744;SDS011;29359;53.048;8.732;2022-09-27T08:07:47;2.03;;;0.70;;
43744;SDS011;29359;53.048;8.732;2022-09-27T08:09:55;5.57;;;1.10;;
43744;SDS011;29359;53.048;8.732;2022-09-27T08:11:56;2.45;;;0.80;;
43744;SDS011;29359;53.048;8.732;2022-09-27T08:13:58;5.43;;;1.00;;
43744;SDS011;29359;53.048;8.732;2022-09-27T08:16:00;2.67;;;0.60;;
43744;SDS011;29359;53.048;8.732;2022-09-27T08:18:02;1.75;;;0.60;;
43744;SDS011;29359;53.048;8.732;2022-09-27T08:20:04;4.05;;;0.57;;
43744;SDS011;29359;53.048;8.732;2022-09-27T08:22:07;2.58;;;0.63;;
43744;SDS011;29359;53.048;8.732;2022-09-27T08:24:08;2.55;;;0.60;;
43744;SDS011;29359;53.048;8.732;2022-09-27T08:26:10;1.38;;;0.47;;
43744;SDS011;29359;53.048;8.732;2022-09-27T08:28:11;2.90;;;0.63;;
43744;SDS011;29359;53.048;8.732;2022-09-27T08:30:13;3.50;;;0.70;;
43744;SDS011;29359;53.048;8.732;2022-09-27T08:32:15;1.15;;;0.45;;
43744;SDS011;29359;53.048;8.732;2022-09-27T08:34:23;1.20;;;0.67;;
43744;SDS011;29359;53.048;8.732;2022-09-27T08:36:24;3.70;;;0.63;;
43744;SDS011;29359;53.048;8.732;2022-09-27T08:38:26;3.50;;;0.60;;
43744;SDS011;29359;53.048;8.732;2022-09-27T08:40:34;5.65;;;1.60;;
43744;SDS011;29359;53.048;8.732;2022-09-27T08:42:59;4.03;;;0.80;;
43744;SDS011;29359;53.048;8.732;2022-09-27T08:45:15;11.45;;;0.88;;
43744;SDS011;29359;53.048;8.732;2022-09-27T08:49:49;6.80;;;0.75;;
43744;SDS011;29359;53.048;8.732;2022-09-27T08:51:56;4.57;;;0.85;;
43744;SDS011;29359;53.048;8.732;2022-09-27T08:54:01;2.80;;;0.50;;
43744;SDS011;29359;53.048;8.732;2022-09-27T08:56:19;2.10;;;0.60;;
43744;SDS011;29359;53.048;8.732;2022-09-27T08:58:35;1.70;;;0.38;;
43744;SDS011;29359;53.048;8.732;2022-09-27T09:00:39;2.38;;;0.43;;
43744;SDS011;29359;53.048;8.732;2022-09-27T09:02:42;2.35;;;0.40;;
43744;SDS011;29359;53.048;8.732;2022-09-27T09:04:44;1.83;;;0.45;;
43744;SDS011;29359;53.048;8.732;2022-09-27T09:14:20;2.65;;;0.60;;
43744;SDS011;29359;53.048;8.732;2022-09-27T09:24:28;3.25;;;0.60;;
43744;SDS011;29359;53.048;8.732;2022-09-27T09:29:40;1.80;;;0.55;;
43744;SDS011;29359;53.048;8.732;2022-09-27T09:34:41;2.38;;;0.47;;
43744;SDS011;29359;53.048;8.732;2022-09-27T09:39:17;4.80;;;0.82;;
43744;SDS011;29359;53.048;8.732;2022-09-27T09:43:46;2.13;;;0.60;;
43744;SDS011;29359;53.048;8.732;2022-09-27T09:46:41;2.45;;;0.68;;
43744;SDS011;29359;53.048;8.732;2022-09-27T09:48:27;5.32;;;0.82;;
43744;SDS011;29359;53.048;8.732;2022-09-27T09:50:39;3.65;;;0.95;;
43744;SDS011;29359;53.048;8.732;2022-09-27T09:52:46;5.40;;;0.75;;
43744;SDS011;29359;53.048;8.732;2022-09-27T09:54:56;3.13;;;0.68;;
43744;SDS011;29359;53.048;8.732;2022-09-27T09:57:22;1.65;;;0.38;;
43744;SDS011;29359;53.048;8.732;2022-09-27T09:59:45;1.58;;;0.77;;
43744;SDS011;29359;53.048;8.732;2022-09-27T10:01:53;2.95;;;0.82;;
43744;SDS011;29359;53.048;8.732;2022-09-27T10:03:58;2.30;;;0.90;;
43744;SDS011;29359;53.048;8.732;2022-09-27T10:06:00;4.75;;;0.90;;
43744;SDS011;29359;53.048;8.732;2022-09-27T10:08:02;4.25;;;0.63;;
43744;SDS011;29359;53.048;8.732;2022-09-27T10:10:07;2.53;;;0.93;;
43744;SDS011;29359;53.048;8.732;2022-09-27T10:12:15;2.75;;;0.50;;
43744;SDS011;29359;53.048;8.732;2022-09-27T10:14:18;2.63;;;0.70;;
43744;SDS011;29359;53.048;8.732;2022-09-27T10:16:20;4.22;;;1.20;;
43744;SDS011;29359;53.048;8.732;2022-09-27T10:18:23;2.13;;;0.88;;
43744;SDS011;29359;53.048;8.732;2022-09-27T10:20:26;2.70;;;0.60;;
43744;SDS011;29359;53.048;8.732;2022-09-27T10:22:42;2.85;;;0.70;;
43744;SDS011;29359;53.048;8.732;2022-09-27T10:24:57;2.40;;;0.70;;
43744;SDS011;29359;53.048;8.732;2022-09-27T10:27:03;2.08;;;0.65;;
43744;SDS011;29359;53.048;8.732;2022-09-27T10:31:18;2.70;;;0.50;;
43744;SDS011;29359;53.048;8.732;2022-09-27T10:33:21;3.20;;;0.70;;
43744;SDS011;29359;53.048;8.732;2022-09-27T10:35:36;1.00;;;0.47;;
43744;SDS011;29359;53.048;8.732;2022-09-27T10:37:41;1.60;;;0.70;;
43744;SDS011;29359;53.048;8.732;2022-09-27T10:39:45;2.03;;;0.70;;
43744;SDS011;29359;53.048;8.732;2022-09-27T10:41:48;2.63;;;0.40;;
43744;SDS011;29359;53.048;8.732;2022-09-27T10:43:50;3.33;;;0.65;;
43744;SDS011;29359;53.048;8.732;2022-09-27T10:46:05;1.42;;;0.50;;
43744;SDS011;29359;53.048;8.732;2022-09-27T10:48:18;4.40;;;0.70;;
43744;SDS011;29359;53.048;8.732;2022-09-27T10:50:24;1.30;;;0.40;;
43744;SDS011;29359;53.048;8.732;2022-09-27T10:52:47;3.60;;;0.82;;
43744;SDS011;29359;53.048;8.732;2022-09-27T10:57:03;1.30;;;0.88;;
43744;SDS011;29359;53.048;8.732;2022-09-27T10:59:13;3.05;;;0.85;;
43744;SDS011;29359;53.048;8.732;2022-09-27T11:01:19;1.98;;;0.75;;
43744;SDS011;29359;53.048;8.732;2022-09-27T11:03:21;3.90;;;1.02;;
43744;SDS011;29359;53.048;8.732;2022-09-27T11:07:28;4.53;;;0.80;;
43744;SDS011;29359;53.048;8.732;2022-09-27T11:09:29;2.40;;;0.90;;
43744;SDS011;29359;53.048;8.732;2022-09-27T11:11:31;2.08;;;0.90;;
43744;SDS011;29359;53.048;8.732;2022-09-27T11:13:33;2.53;;;0.95;;
43744;SDS011;29359;53.048;8.732;2022-09-27T11:15:49;3.88;;;0.80;;
43744;SDS011;29359;53.048;8.732;2022-09-27T11:27:12;4.55;;;1.27;;
43744;SDS011;29359;53.048;8.732;2022-09-27T11:51:07;4.05;;;1.08;;
43744;SDS011;29359;53.048;8.732;2022-09-27T11:55:54;1.80;;;1.00;;
43744;SDS011;29359;53.048;8.732;2022-09-27T11:58:15;3.72;;;1.73;;
43744;SDS011;29359;53.048;8.732;2022-09-27T12:00:19;3.25;;;1.23;;
43744;SDS011;29359;53.048;8.732;2022-09-27T12:02:28;4.82;;;1.38;;
43744;SDS011;29359;53.048;8.732;2022-09-27T12:04:45;7.03;;;1.20;;
43744;SDS011;29359;53.048;8.732;2022-09-27T12:09:17;3.20;;;1.10;;
43744;SDS011;29359;53.048;8.732;2022-09-27T12:16:10;2.85;;;1.00;;
43744;SDS011;29359;53.048;8.732;2022-09-27T12:20:20;4.13;;;0.88;;
43744;SDS011;29359;53.048;8.732;2022-09-27T12:22:39;2.90;;;1.00;;
43744;SDS011;29359;53.048;8.732;2022-09-27T12:24:59;3.17;;;1.10;;
43744;SDS011;29359;53.048;8.732;2022-09-27T12:27:05;5.70;;;1.10;;
43744;SDS011;29359;53.048;8.732;2022-09-27T12:31:36;1.92;;;1.00;;
43744;SDS011;29359;53.048;8.732;2022-09-27T12:33:48;1.80;;;1.10;;
43744;SDS011;29359;53.048;8.732;2022-09-27T12:35:56;3.25;;;1.08;;
43744;SDS011;29359;53.048;8.732;2022-09-27T12:38:11;3.47;;;1.38;;
43744;SDS011;29359;53.048;8.732;2022-09-27T12:40:18;3.78;;;1.30;;
43744;SDS011;29359;53.048;8.732;2022-09-27T12:44:47;6.25;;;1.17;;
43744;SDS011;29359;53.048;8.732;2022-09-27T12:56:45;2.70;;;1.00;;
43744;SDS011;29359;53.048;8.732;2022-09-27T13:06:06;3.70;;;0.80;;
43744;SDS011;29359;53.048;8.732;2022-09-27T13:08:25;1.40;;;0.40;;
43744;SDS011;29359;53.048;8.732;2022-09-27T13:13:10;2.55;;;0.80;;
43744;SDS011;29359;53.048;8.732;2022-09-27T13:19:42;2.10;;;0.68;;
43744;SDS011;29359;53.048;8.732;2022-09-27T13:23:49;3.78;;;0.60;;
43744;SDS011;29359;53.048;8.732;2022-09-27T13:25:53;2.00;;;0.40;;
43744;SDS011;29359;53.048;8.732;2022-09-27T13:28:29;1.00;;;0.40;;
43744;SDS011;29359;53.048;8.732;2022-09-27T13:32:35;3.78;;;0.40;;
43744;SDS011;29359;53.048;8.732;2022-09-27T13:34:38;4.25;;;0.55;;
43744;SDS011;29359;53.048;8.732;2022-09-27T13:36:44;1.10;;;0.50;;
43744;SDS011;29359;53.048;8.732;2022-09-27T13:41:17;0.60;;;0.30;;
43744;SDS011;29359;53.048;8.732;2022-09-27T13:43:33;1.83;;;0.40;;
43744;SDS011;29359;53.048;8.732;2022-09-27T13:45:50;0.60;;;0.40;;
43744;SDS011;29359;53.048;8.732;2022-09-27T13:47:57;2.55;;;0.90;;
43744;SDS011;29359;53.048;8.732;2022-09-27T13:50:11;0.95;;;0.50;;
43744;SDS011;29359;53.048;8.732;2022-09-27T13:52:30;2.72;;;0.30;;
43744;SDS011;29359;53.048;8.732;2022-09-27T13:54:37;1.88;;;0.40;;
43744;SDS011;29359;53.048;8.732;2022-09-27T13:58:49;1.27;;;0.30;;
43744;SDS011;29359;53.048;8.732;2022-09-27T14:00:55;0.85;;;0.20;;
43744;SDS011;29359;53.048;8.732;2022-09-27T14:03:01;0.70;;;0.30;;
43744;SDS011;29359;53.048;8.732;2022-09-27T14:05:16;2.60;;;0.20;;
43744;SDS011;29359;53.048;8.732;2022-09-27T14:07:23;0.20;;;0.20;;
43744;SDS011;29359;53.048;8.732;2022-09-27T14:09:31;0.47;;;0.28;;
43744;SDS011;29359;53.048;8.732;2022-09-27T14:11:38;1.20;;;0.52;;
43744;SDS011;29359;53.048;8.732;2022-09-27T14:13:43;1.92;;;0.80;;
43744;SDS011;29359;53.048;8.732;2022-09-27T14:15:46;1.83;;;0.40;;
43744;SDS011;29359;53.048;8.732;2022-09-27T14:17:48;1.27;;;0.70;;
43744;SDS011;29359;53.048;8.732;2022-09-27T14:19:50;0.80;;;0.55;;
43744;SDS011;29359;53.048;8.732;2022-09-27T14:21:54;1.08;;;0.32;;
43744;SDS011;29359;53.048;8.732;2022-09-27T14:24:31;1.58;;;0.40;;
43744;SDS011;29359;53.048;8.732;2022-09-27T14:26:45;0.90;;;0.50;;
43744;SDS011;29359;53.048;8.732;2022-09-27T14:28:47;1.02;;;0.30;;
43744;SDS011;29359;53.048;8.732;2022-09-27T14:33:25;1.38;;;0.50;;
43744;SDS011;29359;53.048;8.732;2022-09-27T14:35:29;2.00;;;0.35;;
43744;SDS011;29359;53.048;8.732;2022-09-27T14:37:51;3.35;;;0.38;;
43744;SDS011;29359;53.048;8.732;2022-09-27T14:39:57;0.95;;;0.30;;
43744;SDS011;29359;53.048;8.732;2022-09-27T14:42:04;0.30;;;0.20;;
43744;SDS011;29359;53.048;8.732;2022-09-27T14:44:17;0.60;;;0.30;;
43744;SDS011;29359;53.048;8.732;2022-09-27T14:46:28;2.85;;;0.50;;
43744;SDS011;29359;53.048;8.732;2022-09-27T14:48:32;0.55;;;0.25;;
43744;SDS011;29359;53.048;8.732;2022-09-27T14:50:35;1.05;;;0.40;;
43744;SDS011;29359;53.048;8.732;2022-09-27T14:52:37;1.88;;;0.50;;
43744;SDS011;29359;53.048;8.732;2022-09-27T14:54:39;0.50;;;0.30;;
43744;SDS011;29359;53.048;8.732;2022-09-27T14:56:41;2.92;;;0.38;;
43744;SDS011;29359;53.048;8.732;2022-09-27T14:58:42;0.85;;;0.30;;
43744;SDS011;29359;53.048;8.732;2022-09-27T15:00:48;0.30;;;0.22;;
43744;SDS011;29359;53.048;8.732;2022-09-27T15:02:51;1.52;;;0.32;;
43744;SDS011;29359;53.048;8.732;2022-09-27T15:04:55;1.38;;;0.70;;
43744;SDS011;29359;53.048;8.732;2022-09-27T15:06:57;1.73;;;0.70;;
43744;SDS011;29359;53.048;8.732;2022-09-27T15:09:02;0.85;;;0.50;;
43744;SDS011;29359;53.048;8.732;2022-09-27T15:11:06;3.42;;;0.60;;
43744;SDS011;29359;53.048;8.732;2022-09-27T15:13:11;0.75;;;0.32;;
43744;SDS011;29359;53.048;8.732;2022-09-27T15:15:20;1.58;;;0.40;;